sensor_id;sensor_type;location;lat;lon;timestamp;P1;durP1;ratioP1;P2;durP2;ratioP2
24813;SDS011;12904;50.088;11.414;2022-08-14T00:01:49;16.42;;;15.07;;
24813;SDS011;12904;50.088;11.414;2022-08-14T00:04:15;17.42;;;16.02;;
24813;SDS011;12904;50.088;11.414;2022-08-14T00:06:40;16.13;;;15.00;;
24813;SDS011;12904;50.088;11.414;2022-08-14T00:09:06;16.27;;;15.18;;
24813;SDS011;12904;50.088;11.414;2022-08-14T00:11:32;16.20;;;14.82;;
24813;SDS011;12904;50.088;11.414;2022-08-14T00:13:59;16.50;;;15.13;;
24813;SDS011;12904;50.088;11.414;2022-08-14T00:16:25;16.30;;;15.00;;
24813;SDS011;12904;50.088;11.414;2022-08-14T00:18:51;16.95;;;15.75;;
24813;SDS011;12904;50.088;11.414;2022-08-14T00:21:17;15.75;;;14.57;;
24813;SDS011;12904;50.088;11.414;2022-08-14T00:23:42;15.57;;;14.32;;
24813;SDS011;12904;50.088;11.414;2022-08-14T00:26:08;16.95;;;15.85;;
24813;SDS011;12904;50.088;11.414;2022-08-14T00:28:34;15.57;;;14.48;;
24813;SDS011;12904;50.088;11.414;2022-08-14T00:31:00;16.42;;;15.32;;
24813;SDS011;12904;50.088;11.414;2022-08-14T00:33:27;15.98;;;14.93;;
24813;SDS011;12904;50.088;11.414;2022-08-14T00:35:53;16.77;;;15.60;;
24813;SDS011;12904;50.088;11.414;2022-08-14T00:38:19;17.38;;;15.95;;
24813;SDS011;12904;50.088;11.414;2022-08-14T00:40:45;16.40;;;15.30;;
24813;SDS011;12904;50.088;11.414;2022-08-14T00:43:12;16.55;;;15.45;;
24813;SDS011;12904;50.088;11.414;2022-08-14T00:45:39;17.92;;;16.42;;
24813;SDS011;12904;50.088;11.414;2022-08-14T00:48:06;16.92;;;15.63;;
24813;SDS011;12904;50.088;11.414;2022-08-14T00:50:31;17.20;;;15.88;;
24813;SDS011;12904;50.088;11.414;2022-08-14T00:52:59;16.52;;;15.13;;
24813;SDS011;12904;50.088;11.414;2022-08-14T00:55:25;15.88;;;14.77;;
24813;SDS011;12904;50.088;11.414;2022-08-14T00:57:53;16.55;;;15.43;;
24813;SDS011;12904;50.088;11.414;2022-08-14T01:00:37;15.77;;;14.68;;
24813;SDS011;12904;50.088;11.414;2022-08-14T01:03:05;17.38;;;16.10;;
24813;SDS011;12904;50.088;11.414;2022-08-14T01:05:31;17.77;;;16.38;;
24813;SDS011;12904;50.088;11.414;2022-08-14T01:07:58;16.98;;;15.82;;
24813;SDS011;12904;50.088;11.414;2022-08-14T01:10:25;19.23;;;17.45;;
24813;SDS011;12904;50.088;11.414;2022-08-14T01:13:12;17.58;;;16.13;;
24813;SDS011;12904;50.088;11.414;2022-08-14T01:15:44;16.17;;;15.13;;
24813;SDS011;12904;50.088;11.414;2022-08-14T01:18:10;17.60;;;16.08;;
24813;SDS011;12904;50.088;11.414;2022-08-14T01:20:56;19.27;;;17.80;;
24813;SDS011;12904;50.088;11.414;2022-08-14T01:23:28;17.98;;;16.55;;
24813;SDS011;12904;50.088;11.414;2022-08-14T01:25:55;19.38;;;17.30;;
24813;SDS011;12904;50.088;11.414;2022-08-14T01:28:22;19.60;;;17.92;;
24813;SDS011;12904;50.088;11.414;2022-08-14T01:30:50;18.95;;;17.50;;
24813;SDS011;12904;50.088;11.414;2022-08-14T01:33:22;19.55;;;18.08;;
24813;SDS011;12904;50.088;11.414;2022-08-14T01:35:53;20.90;;;18.98;;
24813;SDS011;12904;50.088;11.414;2022-08-14T01:40:59;22.33;;;20.27;;
24813;SDS011;12904;50.088;11.414;2022-08-14T01:43:26;22.50;;;20.60;;
24813;SDS011;12904;50.088;11.414;2022-08-14T01:45:56;23.17;;;21.25;;
24813;SDS011;12904;50.088;11.414;2022-08-14T01:48:22;22.25;;;20.35;;
24813;SDS011;12904;50.088;11.414;2022-08-14T01:50:49;23.80;;;22.00;;
24813;SDS011;12904;50.088;11.414;2022-08-14T01:53:15;25.08;;;22.65;;
24813;SDS011;12904;50.088;11.414;2022-08-14T01:55:41;24.92;;;22.63;;
24813;SDS011;12904;50.088;11.414;2022-08-14T01:58:07;26.60;;;24.48;;
24813;SDS011;12904;50.088;11.414;2022-08-14T02:00:39;26.20;;;24.05;;
24813;SDS011;12904;50.088;11.414;2022-08-14T02:03:05;27.60;;;25.40;;
24813;SDS011;12904;50.088;11.414;2022-08-14T02:05:31;25.55;;;23.45;;
24813;SDS011;12904;50.088;11.414;2022-08-14T02:07:57;25.50;;;23.27;;
24813;SDS011;12904;50.088;11.414;2022-08-14T02:10:23;28.80;;;25.80;;
24813;SDS011;12904;50.088;11.414;2022-08-14T02:12:53;28.05;;;24.35;;
24813;SDS011;12904;50.088;11.414;2022-08-14T02:15:20;26.58;;;24.27;;
24813;SDS011;12904;50.088;11.414;2022-08-14T02:17:46;24.85;;;22.88;;
24813;SDS011;12904;50.088;11.414;2022-08-14T02:20:13;27.75;;;24.92;;
24813;SDS011;12904;50.088;11.414;2022-08-14T02:22:38;28.23;;;25.50;;
24813;SDS011;12904;50.088;11.414;2022-08-14T02:25:04;27.40;;;25.00;;
24813;SDS011;12904;50.088;11.414;2022-08-14T02:27:30;26.67;;;24.48;;
24813;SDS011;12904;50.088;11.414;2022-08-14T02:29:56;25.77;;;23.75;;
24813;SDS011;12904;50.088;11.414;2022-08-14T02:32:22;26.52;;;24.42;;
24813;SDS011;12904;50.088;11.414;2022-08-14T02:34:47;24.35;;;22.45;;
24813;SDS011;12904;50.088;11.414;2022-08-14T02:37:13;26.58;;;24.38;;
24813;SDS011;12904;50.088;11.414;2022-08-14T02:39:44;26.95;;;24.35;;
24813;SDS011;12904;50.088;11.414;2022-08-14T02:42:11;27.67;;;24.60;;
24813;SDS011;12904;50.088;11.414;2022-08-14T02:44:40;25.27;;;23.35;;
24813;SDS011;12904;50.088;11.414;2022-08-14T02:47:07;24.77;;;22.75;;
24813;SDS011;12904;50.088;11.414;2022-08-14T02:49:34;26.05;;;24.10;;
24813;SDS011;12904;50.088;11.414;2022-08-14T02:52:00;26.75;;;24.33;;
24813;SDS011;12904;50.088;11.414;2022-08-14T02:54:27;26.75;;;24.40;;
24813;SDS011;12904;50.088;11.414;2022-08-14T02:56:53;26.88;;;24.50;;
24813;SDS011;12904;50.088;11.414;2022-08-14T02:59:20;27.63;;;25.27;;
24813;SDS011;12904;50.088;11.414;2022-08-14T03:01:48;29.55;;;26.58;;
24813;SDS011;12904;50.088;11.414;2022-08-14T03:04:14;26.77;;;24.60;;
24813;SDS011;12904;50.088;11.414;2022-08-14T03:06:41;30.08;;;27.27;;
24813;SDS011;12904;50.088;11.414;2022-08-14T03:09:07;32.08;;;29.08;;
24813;SDS011;12904;50.088;11.414;2022-08-14T03:11:34;32.03;;;28.92;;
24813;SDS011;12904;50.088;11.414;2022-08-14T03:14:00;30.73;;;27.80;;
24813;SDS011;12904;50.088;11.414;2022-08-14T03:16:25;32.63;;;29.55;;
24813;SDS011;12904;50.088;11.414;2022-08-14T03:18:52;29.45;;;26.77;;
24813;SDS011;12904;50.088;11.414;2022-08-14T03:21:20;32.22;;;29.00;;
24813;SDS011;12904;50.088;11.414;2022-08-14T03:23:48;30.85;;;27.77;;
24813;SDS011;12904;50.088;11.414;2022-08-14T03:26:15;30.30;;;27.30;;
24813;SDS011;12904;50.088;11.414;2022-08-14T03:28:44;28.95;;;26.30;;
24813;SDS011;12904;50.088;11.414;2022-08-14T03:31:13;30.75;;;26.67;;
24813;SDS011;12904;50.088;11.414;2022-08-14T03:33:42;28.63;;;25.90;;
24813;SDS011;12904;50.088;11.414;2022-08-14T03:36:12;30.23;;;27.52;;
24813;SDS011;12904;50.088;11.414;2022-08-14T03:38:41;33.60;;;30.45;;
24813;SDS011;12904;50.088;11.414;2022-08-14T03:41:08;29.60;;;26.77;;
24813;SDS011;12904;50.088;11.414;2022-08-14T03:43:41;27.90;;;25.58;;
24813;SDS011;12904;50.088;11.414;2022-08-14T03:46:08;27.10;;;24.92;;
24813;SDS011;12904;50.088;11.414;2022-08-14T03:48:35;28.63;;;26.10;;
24813;SDS011;12904;50.088;11.414;2022-08-14T03:51:01;29.92;;;27.23;;
24813;SDS011;12904;50.088;11.414;2022-08-14T03:53:28;31.05;;;28.25;;
24813;SDS011;12904;50.088;11.414;2022-08-14T03:55:53;31.80;;;28.52;;
24813;SDS011;12904;50.088;11.414;2022-08-14T03:58:23;31.25;;;28.30;;
24813;SDS011;12904;50.088;11.414;2022-08-14T04:00:48;33.58;;;30.42;;
24813;SDS011;12904;50.088;11.414;2022-08-14T04:03:14;33.78;;;30.35;;
24813;SDS011;12904;50.088;11.414;2022-08-14T04:05:40;35.63;;;32.17;;
24813;SDS011;12904;50.088;11.414;2022-08-14T04:08:07;35.75;;;32.08;;
24813;SDS011;12904;50.088;11.414;2022-08-14T04:10:33;35.60;;;31.98;;
24813;SDS011;12904;50.088;11.414;2022-08-14T04:13:02;35.30;;;31.40;;
24813;SDS011;12904;50.088;11.414;2022-08-14T04:15:33;36.97;;;33.10;;
24813;SDS011;12904;50.088;11.414;2022-08-14T04:18:03;41.25;;;33.28;;
24813;SDS011;12904;50.088;11.414;2022-08-14T04:20:36;38.33;;;33.00;;
24813;SDS011;12904;50.088;11.414;2022-08-14T04:23:04;32.83;;;29.58;;
24813;SDS011;12904;50.088;11.414;2022-08-14T04:25:31;34.20;;;30.90;;
24813;SDS011;12904;50.088;11.414;2022-08-14T04:28:00;32.05;;;28.77;;
24813;SDS011;12904;50.088;11.414;2022-08-14T04:30:31;31.70;;;28.67;;
24813;SDS011;12904;50.088;11.414;2022-08-14T04:33:03;32.10;;;29.10;;
24813;SDS011;12904;50.088;11.414;2022-08-14T04:35:31;31.65;;;28.75;;
24813;SDS011;12904;50.088;11.414;2022-08-14T04:37:57;29.42;;;26.83;;
24813;SDS011;12904;50.088;11.414;2022-08-14T04:40:41;29.45;;;26.75;;
24813;SDS011;12904;50.088;11.414;2022-08-14T04:43:25;28.58;;;25.98;;
24813;SDS011;12904;50.088;11.414;2022-08-14T04:46:04;29.48;;;26.77;;
24813;SDS011;12904;50.088;11.414;2022-08-14T04:48:31;30.90;;;27.92;;
24813;SDS011;12904;50.088;11.414;2022-08-14T04:50:57;28.45;;;25.80;;
24813;SDS011;12904;50.088;11.414;2022-08-14T04:53:25;28.00;;;25.65;;
24813;SDS011;12904;50.088;11.414;2022-08-14T04:55:53;27.65;;;25.15;;
24813;SDS011;12904;50.088;11.414;2022-08-14T04:58:20;28.40;;;25.70;;
24813;SDS011;12904;50.088;11.414;2022-08-14T05:00:48;27.25;;;24.85;;
24813;SDS011;12904;50.088;11.414;2022-08-14T05:03:34;27.77;;;25.33;;
24813;SDS011;12904;50.088;11.414;2022-08-14T05:06:01;27.67;;;25.20;;
24813;SDS011;12904;50.088;11.414;2022-08-14T05:08:30;26.35;;;24.10;;
24813;SDS011;12904;50.088;11.414;2022-08-14T05:10:56;21.95;;;20.23;;
24813;SDS011;12904;50.088;11.414;2022-08-14T05:13:25;20.20;;;18.67;;
24813;SDS011;12904;50.088;11.414;2022-08-14T05:15:52;17.88;;;16.58;;
24813;SDS011;12904;50.088;11.414;2022-08-14T05:18:23;17.88;;;16.58;;
24813;SDS011;12904;50.088;11.414;2022-08-14T05:20:51;16.20;;;15.10;;
24813;SDS011;12904;50.088;11.414;2022-08-14T05:23:22;15.98;;;14.77;;
24813;SDS011;12904;50.088;11.414;2022-08-14T05:25:51;15.65;;;14.45;;
24813;SDS011;12904;50.088;11.414;2022-08-14T05:28:20;14.63;;;13.63;;
24813;SDS011;12904;50.088;11.414;2022-08-14T05:30:49;14.25;;;13.27;;
24813;SDS011;12904;50.088;11.414;2022-08-14T05:33:20;14.93;;;13.82;;
24813;SDS011;12904;50.088;11.414;2022-08-14T05:35:49;13.90;;;12.68;;
24813;SDS011;12904;50.088;11.414;2022-08-14T05:38:16;13.88;;;12.88;;
24813;SDS011;12904;50.088;11.414;2022-08-14T05:40:47;14.77;;;13.45;;
24813;SDS011;12904;50.088;11.414;2022-08-14T05:43:13;14.18;;;13.23;;
24813;SDS011;12904;50.088;11.414;2022-08-14T05:45:39;13.45;;;12.23;;
24813;SDS011;12904;50.088;11.414;2022-08-14T05:48:06;13.93;;;12.77;;
24813;SDS011;12904;50.088;11.414;2022-08-14T05:50:33;13.45;;;12.30;;
24813;SDS011;12904;50.088;11.414;2022-08-14T05:52:59;12.80;;;12.00;;
24813;SDS011;12904;50.088;11.414;2022-08-14T05:55:25;13.70;;;12.80;;
24813;SDS011;12904;50.088;11.414;2022-08-14T05:57:56;13.02;;;12.13;;
24813;SDS011;12904;50.088;11.414;2022-08-14T06:00:33;12.73;;;11.93;;
24813;SDS011;12904;50.088;11.414;2022-08-14T06:03:04;12.30;;;11.55;;
24813;SDS011;12904;50.088;11.414;2022-08-14T06:05:34;12.32;;;11.63;;
24813;SDS011;12904;50.088;11.414;2022-08-14T06:08:01;11.98;;;11.27;;
24813;SDS011;12904;50.088;11.414;2022-08-14T06:10:27;11.35;;;10.65;;
24813;SDS011;12904;50.088;11.414;2022-08-14T06:12:58;12.02;;;11.23;;
24813;SDS011;12904;50.088;11.414;2022-08-14T06:15:27;11.10;;;10.38;;
24813;SDS011;12904;50.088;11.414;2022-08-14T06:17:53;11.25;;;10.43;;
24813;SDS011;12904;50.088;11.414;2022-08-14T06:20:21;11.55;;;10.75;;
24813;SDS011;12904;50.088;11.414;2022-08-14T06:22:48;10.73;;;10.02;;
24813;SDS011;12904;50.088;11.414;2022-08-14T06:25:14;10.00;;;9.20;;
24813;SDS011;12904;50.088;11.414;2022-08-14T06:27:45;9.45;;;8.85;;
24813;SDS011;12904;50.088;11.414;2022-08-14T06:32:38;8.90;;;8.30;;
24813;SDS011;12904;50.088;11.414;2022-08-14T06:35:04;8.73;;;8.13;;
24813;SDS011;12904;50.088;11.414;2022-08-14T06:37:46;8.73;;;8.23;;
24813;SDS011;12904;50.088;11.414;2022-08-14T06:40:14;8.07;;;7.50;;
24813;SDS011;12904;50.088;11.414;2022-08-14T06:42:42;8.85;;;8.35;;
24813;SDS011;12904;50.088;11.414;2022-08-14T06:45:08;9.73;;;8.82;;
24813;SDS011;12904;50.088;11.414;2022-08-14T06:47:38;8.00;;;7.50;;
24813;SDS011;12904;50.088;11.414;2022-08-14T06:50:06;9.45;;;8.75;;
24813;SDS011;12904;50.088;11.414;2022-08-14T06:52:34;8.10;;;7.60;;
24813;SDS011;12904;50.088;11.414;2022-08-14T06:55:01;8.25;;;7.65;;
24813;SDS011;12904;50.088;11.414;2022-08-14T06:57:38;8.75;;;8.05;;
24813;SDS011;12904;50.088;11.414;2022-08-14T07:00:09;7.07;;;6.68;;
24813;SDS011;12904;50.088;11.414;2022-08-14T07:02:36;8.15;;;7.45;;
24813;SDS011;12904;50.088;11.414;2022-08-14T07:05:21;6.80;;;6.40;;
24813;SDS011;12904;50.088;11.414;2022-08-14T07:08:05;8.07;;;7.30;;
24813;SDS011;12904;50.088;11.414;2022-08-14T07:10:42;7.65;;;7.15;;
24813;SDS011;12904;50.088;11.414;2022-08-14T07:13:10;6.75;;;6.35;;
24813;SDS011;12904;50.088;11.414;2022-08-14T07:15:36;6.43;;;5.85;;
24813;SDS011;12904;50.088;11.414;2022-08-14T07:18:03;6.63;;;6.18;;
24813;SDS011;12904;50.088;11.414;2022-08-14T07:20:29;6.05;;;5.72;;
24813;SDS011;12904;50.088;11.414;2022-08-14T07:22:56;6.45;;;5.95;;
24813;SDS011;12904;50.088;11.414;2022-08-14T07:25:25;6.85;;;6.45;;
24813;SDS011;12904;50.088;11.414;2022-08-14T07:27:51;6.47;;;6.07;;
24813;SDS011;12904;50.088;11.414;2022-08-14T07:30:17;7.30;;;6.57;;
24813;SDS011;12904;50.088;11.414;2022-08-14T07:32:43;6.40;;;6.00;;
24813;SDS011;12904;50.088;11.414;2022-08-14T07:35:09;6.93;;;6.32;;
24813;SDS011;12904;50.088;11.414;2022-08-14T07:37:34;6.10;;;5.70;;
24813;SDS011;12904;50.088;11.414;2022-08-14T07:40:03;6.00;;;5.32;;
24813;SDS011;12904;50.088;11.414;2022-08-14T07:42:29;5.68;;;5.18;;
24813;SDS011;12904;50.088;11.414;2022-08-14T07:44:56;5.05;;;4.75;;
24813;SDS011;12904;50.088;11.414;2022-08-14T07:47:23;5.35;;;5.05;;
24813;SDS011;12904;50.088;11.414;2022-08-14T07:50:03;5.88;;;5.47;;
24813;SDS011;12904;50.088;11.414;2022-08-14T07:52:36;5.30;;;4.95;;
24813;SDS011;12904;50.088;11.414;2022-08-14T07:55:03;5.68;;;5.38;;
24813;SDS011;12904;50.088;11.414;2022-08-14T07:57:29;5.72;;;5.32;;
24813;SDS011;12904;50.088;11.414;2022-08-14T07:59:55;5.65;;;5.35;;
24813;SDS011;12904;50.088;11.414;2022-08-14T08:02:21;5.07;;;4.78;;
24813;SDS011;12904;50.088;11.414;2022-08-14T08:04:48;5.57;;;5.18;;
24813;SDS011;12904;50.088;11.414;2022-08-14T08:07:18;5.43;;;5.03;;
24813;SDS011;12904;50.088;11.414;2022-08-14T08:09:47;6.47;;;5.88;;
24813;SDS011;12904;50.088;11.414;2022-08-14T08:12:15;4.70;;;4.38;;
24813;SDS011;12904;50.088;11.414;2022-08-14T08:14:44;5.18;;;4.88;;
24813;SDS011;12904;50.088;11.414;2022-08-14T08:17:12;6.22;;;5.68;;
24813;SDS011;12904;50.088;11.414;2022-08-14T08:19:39;5.75;;;5.35;;
24813;SDS011;12904;50.088;11.414;2022-08-14T08:22:04;5.40;;;5.10;;
24813;SDS011;12904;50.088;11.414;2022-08-14T08:24:30;5.93;;;5.53;;
24813;SDS011;12904;50.088;11.414;2022-08-14T08:26:56;4.57;;;4.28;;
24813;SDS011;12904;50.088;11.414;2022-08-14T08:29:22;5.13;;;4.80;;
24813;SDS011;12904;50.088;11.414;2022-08-14T08:31:51;5.15;;;4.68;;
24813;SDS011;12904;50.088;11.414;2022-08-14T08:34:17;5.13;;;4.68;;
24813;SDS011;12904;50.088;11.414;2022-08-14T08:36:44;4.80;;;4.50;;
24813;SDS011;12904;50.088;11.414;2022-08-14T08:39:10;5.00;;;4.70;;
24813;SDS011;12904;50.088;11.414;2022-08-14T08:41:43;5.10;;;4.80;;
24813;SDS011;12904;50.088;11.414;2022-08-14T08:44:11;5.15;;;4.65;;
24813;SDS011;12904;50.088;11.414;2022-08-14T08:46:38;4.70;;;4.40;;
24813;SDS011;12904;50.088;11.414;2022-08-14T08:49:04;4.28;;;3.97;;
24813;SDS011;12904;50.088;11.414;2022-08-14T08:51:37;4.30;;;3.97;;
24813;SDS011;12904;50.088;11.414;2022-08-14T09:04:21;4.35;;;4.03;;
24813;SDS011;12904;50.088;11.414;2022-08-14T09:06:48;4.32;;;4.00;;
24813;SDS011;12904;50.088;11.414;2022-08-14T09:09:27;3.67;;;3.47;;
24813;SDS011;12904;50.088;11.414;2022-08-14T09:11:55;3.70;;;3.40;;
24813;SDS011;12904;50.088;11.414;2022-08-14T09:14:22;4.05;;;3.85;;
24813;SDS011;12904;50.088;11.414;2022-08-14T09:16:53;5.07;;;4.68;;
24813;SDS011;12904;50.088;11.414;2022-08-14T09:19:21;4.88;;;4.47;;
24813;SDS011;12904;50.088;11.414;2022-08-14T09:21:47;4.70;;;4.40;;
24813;SDS011;12904;50.088;11.414;2022-08-14T09:24:13;4.75;;;4.45;;
24813;SDS011;12904;50.088;11.414;2022-08-14T09:26:39;4.70;;;4.40;;
24813;SDS011;12904;50.088;11.414;2022-08-14T09:29:06;4.30;;;4.00;;
24813;SDS011;12904;50.088;11.414;2022-08-14T09:31:34;5.03;;;4.68;;
24813;SDS011;12904;50.088;11.414;2022-08-14T09:34:06;4.88;;;4.57;;
24813;SDS011;12904;50.088;11.414;2022-08-14T09:39:40;4.75;;;4.45;;
24813;SDS011;12904;50.088;11.414;2022-08-14T09:44:59;5.25;;;4.75;;
24813;SDS011;12904;50.088;11.414;2022-08-14T09:47:43;5.40;;;5.00;;
24813;SDS011;12904;50.088;11.414;2022-08-14T09:50:16;5.07;;;4.75;;
24813;SDS011;12904;50.088;11.414;2022-08-14T09:53:30;5.70;;;5.30;;
24813;SDS011;12904;50.088;11.414;2022-08-14T09:55:40;5.13;;;4.65;;
24813;SDS011;12904;50.088;11.414;2022-08-14T09:58:06;6.22;;;5.63;;
24813;SDS011;12904;50.088;11.414;2022-08-14T10:00:56;5.93;;;5.43;;
24813;SDS011;12904;50.088;11.414;2022-08-14T10:03:29;4.70;;;4.40;;
24813;SDS011;12904;50.088;11.414;2022-08-14T10:06:04;5.50;;;5.10;;
24813;SDS011;12904;50.088;11.414;2022-08-14T10:11:22;5.43;;;5.03;;
24813;SDS011;12904;50.088;11.414;2022-08-14T10:13:52;5.25;;;4.75;;
24813;SDS011;12904;50.088;11.414;2022-08-14T10:16:22;5.18;;;4.85;;
24813;SDS011;12904;50.088;11.414;2022-08-14T10:24:40;5.32;;;4.85;;
24813;SDS011;12904;50.088;11.414;2022-08-14T10:27:16;5.28;;;4.78;;
24813;SDS011;12904;50.088;11.414;2022-08-14T10:29:48;5.10;;;4.70;;
24813;SDS011;12904;50.088;11.414;2022-08-14T10:32:15;5.25;;;4.85;;
24813;SDS011;12904;50.088;11.414;2022-08-14T10:34:41;4.88;;;4.25;;
24813;SDS011;12904;50.088;11.414;2022-08-14T10:37:08;5.07;;;4.70;;
24813;SDS011;12904;50.088;11.414;2022-08-14T10:39:38;4.88;;;4.38;;
24813;SDS011;12904;50.088;11.414;2022-08-14T10:42:09;5.28;;;4.78;;
24813;SDS011;12904;50.088;11.414;2022-08-14T10:44:45;5.80;;;4.53;;
24813;SDS011;12904;50.088;11.414;2022-08-14T10:47:13;4.85;;;4.45;;
24813;SDS011;12904;50.088;11.414;2022-08-14T10:49:43;5.55;;;5.10;;
24813;SDS011;12904;50.088;11.414;2022-08-14T10:52:25;6.40;;;5.90;;
24813;SDS011;12904;50.088;11.414;2022-08-14T10:55:04;4.82;;;4.53;;
24813;SDS011;12904;50.088;11.414;2022-08-14T10:57:50;5.10;;;4.70;;
24813;SDS011;12904;50.088;11.414;2022-08-14T11:00:19;5.57;;;5.07;;
24813;SDS011;12904;50.088;11.414;2022-08-14T11:03:00;5.28;;;4.88;;
24813;SDS011;12904;50.088;11.414;2022-08-14T11:08:07;5.75;;;5.25;;
24813;SDS011;12904;50.088;11.414;2022-08-14T11:10:53;4.90;;;4.60;;
24813;SDS011;12904;50.088;11.414;2022-08-14T11:13:24;7.68;;;5.10;;
24813;SDS011;12904;50.088;11.414;2022-08-14T11:15:55;5.45;;;4.95;;
24813;SDS011;12904;50.088;11.414;2022-08-14T11:18:24;5.63;;;5.10;;
24813;SDS011;12904;50.088;11.414;2022-08-14T11:20:52;5.72;;;5.30;;
24813;SDS011;12904;50.088;11.414;2022-08-14T11:25:57;6.00;;;5.60;;
24813;SDS011;12904;50.088;11.414;2022-08-14T11:28:24;5.85;;;5.35;;
24813;SDS011;12904;50.088;11.414;2022-08-14T11:30:52;6.25;;;5.75;;
24813;SDS011;12904;50.088;11.414;2022-08-14T11:33:24;5.47;;;5.07;;
24813;SDS011;12904;50.088;11.414;2022-08-14T11:35:53;5.22;;;4.82;;
24813;SDS011;12904;50.088;11.414;2022-08-14T11:38:19;5.55;;;5.15;;
24813;SDS011;12904;50.088;11.414;2022-08-14T11:40:45;5.53;;;5.13;;
24813;SDS011;12904;50.088;11.414;2022-08-14T11:43:11;5.82;;;4.80;;
24813;SDS011;12904;50.088;11.414;2022-08-14T11:45:38;5.10;;;4.70;;
24813;SDS011;12904;50.088;11.414;2022-08-14T11:48:20;5.18;;;4.78;;
24813;SDS011;12904;50.088;11.414;2022-08-14T11:50:48;5.32;;;4.85;;
24813;SDS011;12904;50.088;11.414;2022-08-14T11:53:19;5.90;;;5.50;;
24813;SDS011;12904;50.088;11.414;2022-08-14T11:56:01;5.75;;;5.30;;
24813;SDS011;12904;50.088;11.414;2022-08-14T11:58:29;5.85;;;5.30;;
24813;SDS011;12904;50.088;11.414;2022-08-14T12:01:00;5.70;;;4.65;;
24813;SDS011;12904;50.088;11.414;2022-08-14T12:03:40;6.00;;;5.18;;
24813;SDS011;12904;50.088;11.414;2022-08-14T12:08:34;6.22;;;5.72;;
24813;SDS011;12904;50.088;11.414;2022-08-14T12:11:02;5.95;;;5.53;;
24813;SDS011;12904;50.088;11.414;2022-08-14T12:13:29;6.35;;;5.95;;
24813;SDS011;12904;50.088;11.414;2022-08-14T12:16:03;6.10;;;5.63;;
24813;SDS011;12904;50.088;11.414;2022-08-14T12:18:35;5.80;;;5.40;;
24813;SDS011;12904;50.088;11.414;2022-08-14T12:21:21;6.35;;;5.72;;
24813;SDS011;12904;50.088;11.414;2022-08-14T12:24:05;5.55;;;5.15;;
24813;SDS011;12904;50.088;11.414;2022-08-14T12:26:32;6.13;;;5.63;;
24813;SDS011;12904;50.088;11.414;2022-08-14T12:31:40;6.75;;;6.00;;
24813;SDS011;12904;50.088;11.414;2022-08-14T12:34:07;6.47;;;5.97;;
24813;SDS011;12904;50.088;11.414;2022-08-14T12:36:33;5.55;;;5.15;;
24813;SDS011;12904;50.088;11.414;2022-08-14T12:39:00;6.03;;;5.53;;
24813;SDS011;12904;50.088;11.414;2022-08-14T12:41:29;6.28;;;5.78;;
24813;SDS011;12904;50.088;11.414;2022-08-14T12:44:03;5.90;;;5.45;;
24813;SDS011;12904;50.088;11.414;2022-08-14T12:46:32;5.85;;;4.95;;
24813;SDS011;12904;50.088;11.414;2022-08-14T12:49:08;5.85;;;5.35;;
24813;SDS011;12904;50.088;11.414;2022-08-14T12:51:41;5.68;;;5.18;;
24813;SDS011;12904;50.088;11.414;2022-08-14T12:54:11;5.28;;;4.78;;
24813;SDS011;12904;50.088;11.414;2022-08-14T12:56:38;5.82;;;5.43;;
24813;SDS011;12904;50.088;11.414;2022-08-14T12:59:04;5.72;;;5.22;;
24813;SDS011;12904;50.088;11.414;2022-08-14T13:01:32;5.30;;;4.97;;
24813;SDS011;12904;50.088;11.414;2022-08-14T13:04:04;5.75;;;5.35;;
24813;SDS011;12904;50.088;11.414;2022-08-14T13:06:38;5.70;;;5.22;;
24813;SDS011;12904;50.088;11.414;2022-08-14T13:09:08;6.15;;;5.55;;
24813;SDS011;12904;50.088;11.414;2022-08-14T13:11:47;5.30;;;4.85;;
24813;SDS011;12904;50.088;11.414;2022-08-14T13:14:17;6.72;;;5.65;;
24813;SDS011;12904;50.088;11.414;2022-08-14T13:16:48;5.75;;;5.38;;
24813;SDS011;12904;50.088;11.414;2022-08-14T13:19:20;5.50;;;5.00;;
24813;SDS011;12904;50.088;11.414;2022-08-14T13:21:48;5.68;;;5.18;;
24813;SDS011;12904;50.088;11.414;2022-08-14T13:24:17;5.78;;;5.38;;
24813;SDS011;12904;50.088;11.414;2022-08-14T13:26:46;5.00;;;4.70;;
24813;SDS011;12904;50.088;11.414;2022-08-14T13:29:18;5.18;;;4.72;;
24813;SDS011;12904;50.088;11.414;2022-08-14T13:31:49;12.18;;;6.45;;
24813;SDS011;12904;50.088;11.414;2022-08-14T13:34:21;16.25;;;7.85;;
24813;SDS011;12904;50.088;11.414;2022-08-14T13:36:53;13.13;;;8.10;;
24813;SDS011;12904;50.088;11.414;2022-08-14T13:39:21;14.32;;;9.10;;
24813;SDS011;12904;50.088;11.414;2022-08-14T13:41:48;15.38;;;12.70;;
24813;SDS011;12904;50.088;11.414;2022-08-14T13:44:14;13.35;;;12.18;;
24813;SDS011;12904;50.088;11.414;2022-08-14T13:46:43;15.60;;;14.25;;
24813;SDS011;12904;50.088;11.414;2022-08-14T13:49:09;14.45;;;12.75;;
24813;SDS011;12904;50.088;11.414;2022-08-14T13:51:40;12.60;;;11.38;;
24813;SDS011;12904;50.088;11.414;2022-08-14T13:54:12;11.85;;;10.85;;
24813;SDS011;12904;50.088;11.414;2022-08-14T13:56:48;10.52;;;9.70;;
24813;SDS011;12904;50.088;11.414;2022-08-14T13:59:13;9.52;;;8.80;;
24813;SDS011;12904;50.088;11.414;2022-08-14T14:01:39;9.23;;;8.52;;
24813;SDS011;12904;50.088;11.414;2022-08-14T14:04:13;9.05;;;8.25;;
24813;SDS011;12904;50.088;11.414;2022-08-14T14:06:43;9.52;;;8.65;;
24813;SDS011;12904;50.088;11.414;2022-08-14T14:09:11;8.20;;;7.43;;
24813;SDS011;12904;50.088;11.414;2022-08-14T14:11:39;8.20;;;7.53;;
24813;SDS011;12904;50.088;11.414;2022-08-14T14:14:07;8.75;;;7.95;;
24813;SDS011;12904;50.088;11.414;2022-08-14T14:16:35;7.75;;;7.25;;
24813;SDS011;12904;50.088;11.414;2022-08-14T14:19:03;7.00;;;6.38;;
24813;SDS011;12904;50.088;11.414;2022-08-14T14:21:31;7.18;;;6.18;;
24813;SDS011;12904;50.088;11.414;2022-08-14T14:23:58;7.22;;;6.63;;
24813;SDS011;12904;50.088;11.414;2022-08-14T14:26:24;6.38;;;5.88;;
24813;SDS011;12904;50.088;11.414;2022-08-14T14:28:53;6.88;;;6.00;;
24813;SDS011;12904;50.088;11.414;2022-08-14T14:31:21;7.15;;;6.45;;
24813;SDS011;12904;50.088;11.414;2022-08-14T14:33:52;5.93;;;5.43;;
24813;SDS011;12904;50.088;11.414;2022-08-14T14:36:25;6.65;;;5.57;;
24813;SDS011;12904;50.088;11.414;2022-08-14T14:38:53;6.10;;;5.60;;
24813;SDS011;12904;50.088;11.414;2022-08-14T14:41:24;6.05;;;5.65;;
24813;SDS011;12904;50.088;11.414;2022-08-14T14:43:53;5.82;;;5.28;;
24813;SDS011;12904;50.088;11.414;2022-08-14T14:46:21;6.60;;;5.68;;
24813;SDS011;12904;50.088;11.414;2022-08-14T14:48:48;6.55;;;6.05;;
24813;SDS011;12904;50.088;11.414;2022-08-14T14:51:15;5.35;;;4.95;;
24813;SDS011;12904;50.088;11.414;2022-08-14T14:53:43;6.05;;;5.40;;
24813;SDS011;12904;50.088;11.414;2022-08-14T14:56:10;6.00;;;5.53;;
24813;SDS011;12904;50.088;11.414;2022-08-14T14:58:38;6.45;;;5.28;;
24813;SDS011;12904;50.088;11.414;2022-08-14T15:01:07;6.53;;;5.85;;
24813;SDS011;12904;50.088;11.414;2022-08-14T15:03:34;5.75;;;5.25;;
24813;SDS011;12904;50.088;11.414;2022-08-14T15:06:01;6.15;;;5.55;;
24813;SDS011;12904;50.088;11.414;2022-08-14T15:08:27;5.22;;;4.82;;
24813;SDS011;12904;50.088;11.414;2022-08-14T15:10:54;5.50;;;4.97;;
24813;SDS011;12904;50.088;11.414;2022-08-14T15:13:21;6.00;;;5.53;;
24813;SDS011;12904;50.088;11.414;2022-08-14T15:15:46;5.28;;;4.88;;